sensor_id;sensor_type;location;lat;lon;timestamp;P1;durP1;ratioP1;P2;durP2;ratioP2
23668;SDS011;12011;47.422;15.018;2023-03-01T00:01:43;18.35;;;17.95;;
23668;SDS011;12011;47.422;15.018;2023-03-01T00:04:19;15.80;;;15.55;;
23668;SDS011;12011;47.422;15.018;2023-03-01T00:06:49;15.07;;;14.80;;
23668;SDS011;12011;47.422;15.018;2023-03-01T00:09:20;15.74;;;15.32;;
23668;SDS011;12011;47.422;15.018;2023-03-01T00:11:53;15.10;;;14.83;;
23668;SDS011;12011;47.422;15.018;2023-03-01T00:14:22;14.67;;;14.37;;
23668;SDS011;12011;47.422;15.018;2023-03-01T00:16:56;14.82;;;14.40;;
23668;SDS011;12011;47.422;15.018;2023-03-01T00:19:25;13.78;;;13.47;;
23668;SDS011;12011;47.422;15.018;2023-03-01T00:21:58;14.40;;;14.00;;
23668;SDS011;12011;47.422;15.018;2023-03-01T00:24:33;14.48;;;14.20;;
23668;SDS011;12011;47.422;15.018;2023-03-01T00:27:02;14.69;;;14.51;;
23668;SDS011;12011;47.422;15.018;2023-03-01T00:29:34;14.89;;;14.63;;
23668;SDS011;12011;47.422;15.018;2023-03-01T00:32:08;14.91;;;14.71;;
23668;SDS011;12011;47.422;15.018;2023-03-01T00:34:39;14.49;;;14.33;;
23668;SDS011;12011;47.422;15.018;2023-03-01T00:37:21;14.09;;;13.92;;
23668;SDS011;12011;47.422;15.018;2023-03-01T00:39:52;13.82;;;13.53;;
23668;SDS011;12011;47.422;15.018;2023-03-01T00:42:23;13.50;;;13.31;;
23668;SDS011;12011;47.422;15.018;2023-03-01T00:45:05;13.67;;;13.40;;
23668;SDS011;12011;47.422;15.018;2023-03-01T00:47:44;12.44;;;12.16;;
23668;SDS011;12011;47.422;15.018;2023-03-01T00:50:15;11.58;;;11.47;;
23668;SDS011;12011;47.422;15.018;2023-03-01T00:52:54;11.28;;;11.11;;
23668;SDS011;12011;47.422;15.018;2023-03-01T00:55:25;11.14;;;10.91;;
23668;SDS011;12011;47.422;15.018;2023-03-01T00:57:58;11.64;;;11.41;;
23668;SDS011;12011;47.422;15.018;2023-03-01T01:00:29;11.66;;;11.52;;
23668;SDS011;12011;47.422;15.018;2023-03-01T01:03:06;12.62;;;12.39;;
23668;SDS011;12011;47.422;15.018;2023-03-01T01:05:36;12.65;;;12.47;;
23668;SDS011;12011;47.422;15.018;2023-03-01T01:08:12;12.16;;;11.92;;
23668;SDS011;12011;47.422;15.018;2023-03-01T01:10:43;12.27;;;12.08;;
23668;SDS011;12011;47.422;15.018;2023-03-01T01:13:14;13.26;;;13.01;;
23668;SDS011;12011;47.422;15.018;2023-03-01T01:15:48;12.93;;;12.62;;
23668;SDS011;12011;47.422;15.018;2023-03-01T01:18:20;13.34;;;13.01;;
23668;SDS011;12011;47.422;15.018;2023-03-01T01:20:54;11.89;;;11.60;;
23668;SDS011;12011;47.422;15.018;2023-03-01T01:23:26;12.00;;;11.82;;
23668;SDS011;12011;47.422;15.018;2023-03-01T01:26:04;12.95;;;12.66;;
23668;SDS011;12011;47.422;15.018;2023-03-01T01:28:41;12.24;;;12.09;;
23668;SDS011;12011;47.422;15.018;2023-03-01T01:31:18;12.33;;;12.20;;
23668;SDS011;12011;47.422;15.018;2023-03-01T01:34:03;12.16;;;11.91;;
23668;SDS011;12011;47.422;15.018;2023-03-01T01:36:47;11.70;;;11.57;;
23668;SDS011;12011;47.422;15.018;2023-03-01T01:39:21;11.42;;;11.26;;
23668;SDS011;12011;47.422;15.018;2023-03-01T01:41:55;12.39;;;12.21;;
23668;SDS011;12011;47.422;15.018;2023-03-01T01:44:28;13.28;;;13.03;;
23668;SDS011;12011;47.422;15.018;2023-03-01T01:47:03;13.84;;;13.54;;
23668;SDS011;12011;47.422;15.018;2023-03-01T01:49:48;13.41;;;13.10;;
23668;SDS011;12011;47.422;15.018;2023-03-01T01:52:26;13.24;;;13.01;;
23668;SDS011;12011;47.422;15.018;2023-03-01T01:55:03;13.47;;;13.16;;
23668;SDS011;12011;47.422;15.018;2023-03-01T01:57:40;14.43;;;14.12;;
23668;SDS011;12011;47.422;15.018;2023-03-01T02:00:15;14.80;;;14.43;;
23668;SDS011;12011;47.422;15.018;2023-03-01T02:02:58;14.06;;;13.82;;
23668;SDS011;12011;47.422;15.018;2023-03-01T02:05:46;13.98;;;13.64;;
23668;SDS011;12011;47.422;15.018;2023-03-01T02:08:26;13.71;;;13.43;;
23668;SDS011;12011;47.422;15.018;2023-03-01T02:11:00;14.25;;;13.83;;
23668;SDS011;12011;47.422;15.018;2023-03-01T02:13:36;13.44;;;13.12;;
23668;SDS011;12011;47.422;15.018;2023-03-01T02:16:10;13.56;;;13.27;;
23668;SDS011;12011;47.422;15.018;2023-03-01T02:18:44;13.78;;;13.51;;
23668;SDS011;12011;47.422;15.018;2023-03-01T02:21:22;13.01;;;12.86;;
23668;SDS011;12011;47.422;15.018;2023-03-01T02:24:10;11.97;;;11.83;;
23668;SDS011;12011;47.422;15.018;2023-03-01T02:26:59;11.69;;;11.51;;
23668;SDS011;12011;47.422;15.018;2023-03-01T02:29:35;11.66;;;11.54;;
23668;SDS011;12011;47.422;15.018;2023-03-01T02:32:07;12.22;;;12.07;;
23668;SDS011;12011;47.422;15.018;2023-03-01T02:34:37;11.96;;;11.78;;
23668;SDS011;12011;47.422;15.018;2023-03-01T02:37:12;12.24;;;12.03;;
23668;SDS011;12011;47.422;15.018;2023-03-01T02:39:55;11.79;;;11.59;;
23668;SDS011;12011;47.422;15.018;2023-03-01T02:42:40;11.91;;;11.78;;
23668;SDS011;12011;47.422;15.018;2023-03-01T02:45:23;11.70;;;11.59;;
23668;SDS011;12011;47.422;15.018;2023-03-01T02:47:57;11.80;;;11.60;;
23668;SDS011;12011;47.422;15.018;2023-03-01T02:50:39;11.78;;;11.63;;
23668;SDS011;12011;47.422;15.018;2023-03-01T02:53:31;11.19;;;11.03;;
23668;SDS011;12011;47.422;15.018;2023-03-01T02:56:13;12.31;;;12.13;;
23668;SDS011;12011;47.422;15.018;2023-03-01T02:58:51;12.56;;;12.32;;
23668;SDS011;12011;47.422;15.018;2023-03-01T03:01:31;11.78;;;11.54;;
23668;SDS011;12011;47.422;15.018;2023-03-01T03:04:11;11.66;;;11.51;;
23668;SDS011;12011;47.422;15.018;2023-03-01T03:06:50;12.09;;;12.00;;
23668;SDS011;12011;47.422;15.018;2023-03-01T03:09:27;12.19;;;11.94;;
23668;SDS011;12011;47.422;15.018;2023-03-01T03:11:59;12.29;;;12.05;;
23668;SDS011;12011;47.422;15.018;2023-03-01T03:14:29;11.96;;;11.82;;
23668;SDS011;12011;47.422;15.018;2023-03-01T03:17:05;11.96;;;11.77;;
23668;SDS011;12011;47.422;15.018;2023-03-01T03:19:37;11.74;;;11.49;;
23668;SDS011;12011;47.422;15.018;2023-03-01T03:22:17;13.52;;;13.38;;
23668;SDS011;12011;47.422;15.018;2023-03-01T03:24:50;13.74;;;13.54;;
23668;SDS011;12011;47.422;15.018;2023-03-01T03:27:22;14.06;;;13.74;;
23668;SDS011;12011;47.422;15.018;2023-03-01T03:29:52;14.15;;;13.84;;
23668;SDS011;12011;47.422;15.018;2023-03-01T03:32:27;14.16;;;13.91;;
23668;SDS011;12011;47.422;15.018;2023-03-01T03:34:57;14.61;;;14.25;;
23668;SDS011;12011;47.422;15.018;2023-03-01T03:37:29;14.32;;;14.15;;
23668;SDS011;12011;47.422;15.018;2023-03-01T03:40:13;15.63;;;15.33;;
23668;SDS011;12011;47.422;15.018;2023-03-01T03:42:45;16.26;;;15.95;;
23668;SDS011;12011;47.422;15.018;2023-03-01T03:45:24;16.67;;;16.27;;
23668;SDS011;12011;47.422;15.018;2023-03-01T03:48:02;16.46;;;16.00;;
23668;SDS011;12011;47.422;15.018;2023-03-01T03:50:37;15.23;;;14.96;;
23668;SDS011;12011;47.422;15.018;2023-03-01T03:53:11;15.25;;;14.94;;
23668;SDS011;12011;47.422;15.018;2023-03-01T03:55:41;15.56;;;15.17;;
23668;SDS011;12011;47.422;15.018;2023-03-01T03:58:20;14.88;;;14.57;;
23668;SDS011;12011;47.422;15.018;2023-03-01T04:01:00;14.27;;;14.00;;
23668;SDS011;12011;47.422;15.018;2023-03-01T04:03:35;12.97;;;12.83;;
23668;SDS011;12011;47.422;15.018;2023-03-01T04:06:12;13.60;;;13.40;;
23668;SDS011;12011;47.422;15.018;2023-03-01T04:08:50;13.06;;;12.77;;
23668;SDS011;12011;47.422;15.018;2023-03-01T04:11:27;12.80;;;12.50;;
23668;SDS011;12011;47.422;15.018;2023-03-01T04:14:01;13.81;;;13.46;;
23668;SDS011;12011;47.422;15.018;2023-03-01T04:16:32;14.70;;;14.41;;
23668;SDS011;12011;47.422;15.018;2023-03-01T04:19:05;14.54;;;14.34;;
23668;SDS011;12011;47.422;15.018;2023-03-01T04:21:37;14.32;;;14.08;;
23668;SDS011;12011;47.422;15.018;2023-03-01T04:24:07;14.39;;;14.16;;
23668;SDS011;12011;47.422;15.018;2023-03-01T04:26:41;14.41;;;14.12;;
23668;SDS011;12011;47.422;15.018;2023-03-01T04:29:16;13.78;;;13.58;;
23668;SDS011;12011;47.422;15.018;2023-03-01T04:31:51;14.01;;;13.72;;
23668;SDS011;12011;47.422;15.018;2023-03-01T04:34:29;13.40;;;13.18;;
23668;SDS011;12011;47.422;15.018;2023-03-01T04:37:00;13.54;;;13.37;;
23668;SDS011;12011;47.422;15.018;2023-03-01T04:39:29;13.74;;;13.50;;
23668;SDS011;12011;47.422;15.018;2023-03-01T04:42:14;13.61;;;13.48;;
23668;SDS011;12011;47.422;15.018;2023-03-01T04:44:53;14.72;;;14.38;;
23668;SDS011;12011;47.422;15.018;2023-03-01T04:47:27;13.08;;;12.72;;
23668;SDS011;12011;47.422;15.018;2023-03-01T04:50:06;11.64;;;11.38;;
23668;SDS011;12011;47.422;15.018;2023-03-01T04:52:43;12.15;;;11.89;;
23668;SDS011;12011;47.422;15.018;2023-03-01T04:55:15;12.85;;;12.44;;
23668;SDS011;12011;47.422;15.018;2023-03-01T04:57:45;13.48;;;13.13;;
23668;SDS011;12011;47.422;15.018;2023-03-01T05:00:18;13.83;;;13.55;;
23668;SDS011;12011;47.422;15.018;2023-03-01T05:02:51;13.74;;;13.41;;
23668;SDS011;12011;47.422;15.018;2023-03-01T05:05:27;12.93;;;12.65;;
23668;SDS011;12011;47.422;15.018;2023-03-01T05:08:04;14.15;;;13.78;;
23668;SDS011;12011;47.422;15.018;2023-03-01T05:10:44;13.49;;;13.24;;
23668;SDS011;12011;47.422;15.018;2023-03-01T05:13:18;13.04;;;12.90;;
23668;SDS011;12011;47.422;15.018;2023-03-01T05:15:53;13.52;;;13.27;;
23668;SDS011;12011;47.422;15.018;2023-03-01T05:18:25;13.30;;;13.06;;
23668;SDS011;12011;47.422;15.018;2023-03-01T05:21:04;13.41;;;13.16;;
23668;SDS011;12011;47.422;15.018;2023-03-01T05:23:43;14.63;;;14.28;;
23668;SDS011;12011;47.422;15.018;2023-03-01T05:26:15;14.89;;;14.47;;
23668;SDS011;12011;47.422;15.018;2023-03-01T05:28:47;13.66;;;13.33;;
23668;SDS011;12011;47.422;15.018;2023-03-01T05:31:17;13.79;;;13.56;;
23668;SDS011;12011;47.422;15.018;2023-03-01T05:33:53;13.67;;;13.50;;
23668;SDS011;12011;47.422;15.018;2023-03-01T05:36:25;13.33;;;13.16;;
23668;SDS011;12011;47.422;15.018;2023-03-01T05:38:57;13.52;;;13.15;;
23668;SDS011;12011;47.422;15.018;2023-03-01T05:41:29;13.98;;;13.56;;
23668;SDS011;12011;47.422;15.018;2023-03-01T05:44:09;14.67;;;14.38;;
23668;SDS011;12011;47.422;15.018;2023-03-01T05:46:39;13.46;;;13.16;;
23668;SDS011;12011;47.422;15.018;2023-03-01T05:49:10;13.98;;;13.61;;
23668;SDS011;12011;47.422;15.018;2023-03-01T05:51:49;14.71;;;14.34;;
23668;SDS011;12011;47.422;15.018;2023-03-01T05:54:25;15.28;;;14.86;;
23668;SDS011;12011;47.422;15.018;2023-03-01T05:56:59;14.30;;;13.91;;
23668;SDS011;12011;47.422;15.018;2023-03-01T05:59:32;14.51;;;14.33;;
23668;SDS011;12011;47.422;15.018;2023-03-01T06:02:06;14.47;;;14.19;;
23668;SDS011;12011;47.422;15.018;2023-03-01T06:04:40;21.97;;;21.30;;
23668;SDS011;12011;47.422;15.018;2023-03-01T06:07:13;29.04;;;27.75;;
23668;SDS011;12011;47.422;15.018;2023-03-01T06:09:45;23.50;;;22.76;;
23668;SDS011;12011;47.422;15.018;2023-03-01T06:12:18;19.16;;;18.42;;
23668;SDS011;12011;47.422;15.018;2023-03-01T06:14:50;17.46;;;16.92;;
23668;SDS011;12011;47.422;15.018;2023-03-01T06:17:28;17.31;;;16.75;;
23668;SDS011;12011;47.422;15.018;2023-03-01T06:20:03;15.98;;;15.60;;
23668;SDS011;12011;47.422;15.018;2023-03-01T06:22:38;16.58;;;16.38;;
23668;SDS011;12011;47.422;15.018;2023-03-01T06:25:09;16.23;;;16.01;;
23668;SDS011;12011;47.422;15.018;2023-03-01T06:27:40;17.04;;;16.69;;
23668;SDS011;12011;47.422;15.018;2023-03-01T06:30:11;15.35;;;14.99;;
23668;SDS011;12011;47.422;15.018;2023-03-01T06:32:44;15.13;;;14.71;;
23668;SDS011;12011;47.422;15.018;2023-03-01T06:35:14;15.22;;;14.81;;
23668;SDS011;12011;47.422;15.018;2023-03-01T06:37:48;15.55;;;15.20;;
23668;SDS011;12011;47.422;15.018;2023-03-01T06:40:17;15.04;;;14.69;;
23668;SDS011;12011;47.422;15.018;2023-03-01T06:42:47;15.20;;;14.99;;
23668;SDS011;12011;47.422;15.018;2023-03-01T06:45:19;15.43;;;15.07;;
23668;SDS011;12011;47.422;15.018;2023-03-01T06:47:50;15.16;;;14.74;;
23668;SDS011;12011;47.422;15.018;2023-03-01T06:50:19;15.06;;;14.68;;
23668;SDS011;12011;47.422;15.018;2023-03-01T06:52:51;14.79;;;14.47;;
23668;SDS011;12011;47.422;15.018;2023-03-01T06:55:24;14.10;;;13.77;;
23668;SDS011;12011;47.422;15.018;2023-03-01T06:57:54;14.97;;;14.67;;
23668;SDS011;12011;47.422;15.018;2023-03-01T07:00:25;14.88;;;14.51;;
23668;SDS011;12011;47.422;15.018;2023-03-01T07:02:58;14.89;;;14.45;;
23668;SDS011;12011;47.422;15.018;2023-03-01T07:05:28;15.63;;;15.23;;
23668;SDS011;12011;47.422;15.018;2023-03-01T07:08:01;14.48;;;14.25;;
23668;SDS011;12011;47.422;15.018;2023-03-01T07:10:31;14.44;;;14.16;;
23668;SDS011;12011;47.422;15.018;2023-03-01T07:13:02;14.18;;;13.93;;
23668;SDS011;12011;47.422;15.018;2023-03-01T07:15:32;14.63;;;14.34;;
23668;SDS011;12011;47.422;15.018;2023-03-01T07:18:01;14.53;;;14.20;;
23668;SDS011;12011;47.422;15.018;2023-03-01T07:20:31;13.58;;;13.41;;
23668;SDS011;12011;47.422;15.018;2023-03-01T07:23:03;13.57;;;13.27;;
23668;SDS011;12011;47.422;15.018;2023-03-01T07:25:35;12.75;;;12.51;;
23668;SDS011;12011;47.422;15.018;2023-03-01T07:28:04;14.37;;;14.11;;
23668;SDS011;12011;47.422;15.018;2023-03-01T07:30:33;14.25;;;13.99;;
23668;SDS011;12011;47.422;15.018;2023-03-01T07:33:03;13.93;;;13.55;;
23668;SDS011;12011;47.422;15.018;2023-03-01T07:35:33;13.45;;;13.12;;
23668;SDS011;12011;47.422;15.018;2023-03-01T07:38:05;13.26;;;13.04;;
23668;SDS011;12011;47.422;15.018;2023-03-01T07:40:34;14.28;;;13.90;;
23668;SDS011;12011;47.422;15.018;2023-03-01T07:43:04;14.61;;;14.25;;
23668;SDS011;12011;47.422;15.018;2023-03-01T07:45:33;16.01;;;15.73;;
23668;SDS011;12011;47.422;15.018;2023-03-01T07:48:03;16.71;;;16.40;;
23668;SDS011;12011;47.422;15.018;2023-03-01T07:50:35;19.35;;;18.75;;
23668;SDS011;12011;47.422;15.018;2023-03-01T07:53:07;16.56;;;16.02;;
23668;SDS011;12011;47.422;15.018;2023-03-01T07:55:37;14.01;;;13.75;;
23668;SDS011;12011;47.422;15.018;2023-03-01T07:58:06;14.17;;;13.91;;
23668;SDS011;12011;47.422;15.018;2023-03-01T08:00:36;13.52;;;13.32;;
23668;SDS011;12011;47.422;15.018;2023-03-01T08:03:05;12.95;;;12.70;;
23668;SDS011;12011;47.422;15.018;2023-03-01T08:05:35;12.65;;;12.49;;
23668;SDS011;12011;47.422;15.018;2023-03-01T08:08:07;13.50;;;13.28;;
23668;SDS011;12011;47.422;15.018;2023-03-01T08:10:36;12.87;;;12.48;;
23668;SDS011;12011;47.422;15.018;2023-03-01T08:13:06;13.68;;;13.36;;
23668;SDS011;12011;47.422;15.018;2023-03-01T08:15:35;13.70;;;13.48;;
23668;SDS011;12011;47.422;15.018;2023-03-01T08:18:05;13.49;;;13.31;;
23668;SDS011;12011;47.422;15.018;2023-03-01T08:20:34;13.47;;;13.35;;
23668;SDS011;12011;47.422;15.018;2023-03-01T08:23:06;13.52;;;13.27;;
23668;SDS011;12011;47.422;15.018;2023-03-01T08:25:36;13.21;;;13.00;;
23668;SDS011;12011;47.422;15.018;2023-03-01T08:28:06;13.74;;;13.42;;
23668;SDS011;12011;47.422;15.018;2023-03-01T08:30:36;13.39;;;13.17;;
23668;SDS011;12011;47.422;15.018;2023-03-01T08:33:05;13.59;;;13.37;;
23668;SDS011;12011;47.422;15.018;2023-03-01T08:35:35;13.03;;;12.73;;
23668;SDS011;12011;47.422;15.018;2023-03-01T08:38:07;13.32;;;12.95;;
23668;SDS011;12011;47.422;15.018;2023-03-01T08:40:36;13.34;;;12.93;;
23668;SDS011;12011;47.422;15.018;2023-03-01T08:43:05;12.97;;;12.75;;
23668;SDS011;12011;47.422;15.018;2023-03-01T08:45:35;12.54;;;12.29;;
23668;SDS011;12011;47.422;15.018;2023-03-01T08:48:04;12.48;;;12.18;;
23668;SDS011;12011;47.422;15.018;2023-03-01T08:50:34;12.65;;;12.40;;
23668;SDS011;12011;47.422;15.018;2023-03-01T08:53:03;12.71;;;12.39;;
23668;SDS011;12011;47.422;15.018;2023-03-01T08:55:35;12.64;;;12.43;;
23668;SDS011;12011;47.422;15.018;2023-03-01T08:58:04;12.98;;;12.73;;
23668;SDS011;12011;47.422;15.018;2023-03-01T09:00:34;12.39;;;12.13;;
23668;SDS011;12011;47.422;15.018;2023-03-01T09:03:03;12.66;;;12.38;;
23668;SDS011;12011;47.422;15.018;2023-03-01T09:05:33;13.27;;;12.85;;
23668;SDS011;12011;47.422;15.018;2023-03-01T09:08:03;12.39;;;12.07;;
23668;SDS011;12011;47.422;15.018;2023-03-01T09:10:37;12.63;;;12.22;;
23668;SDS011;12011;47.422;15.018;2023-03-01T09:13:07;11.85;;;11.53;;
23668;SDS011;12011;47.422;15.018;2023-03-01T09:15:37;11.73;;;11.53;;
23668;SDS011;12011;47.422;15.018;2023-03-01T09:18:06;11.91;;;11.65;;
23668;SDS011;12011;47.422;15.018;2023-03-01T09:20:36;12.04;;;11.67;;
23668;SDS011;12011;47.422;15.018;2023-03-01T09:23:08;11.68;;;11.41;;
23668;SDS011;12011;47.422;15.018;2023-03-01T09:25:37;11.45;;;11.23;;
23668;SDS011;12011;47.422;15.018;2023-03-01T09:28:07;11.91;;;11.69;;
23668;SDS011;12011;47.422;15.018;2023-03-01T09:30:36;11.80;;;11.52;;
23668;SDS011;12011;47.422;15.018;2023-03-01T09:33:06;11.30;;;11.06;;
23668;SDS011;12011;47.422;15.018;2023-03-01T09:35:40;11.65;;;11.38;;
23668;SDS011;12011;47.422;15.018;2023-03-01T09:38:15;11.89;;;11.36;;
23668;SDS011;12011;47.422;15.018;2023-03-01T09:40:44;11.50;;;11.26;;
23668;SDS011;12011;47.422;15.018;2023-03-01T09:43:17;12.00;;;11.76;;
23668;SDS011;12011;47.422;15.018;2023-03-01T09:45:55;11.28;;;10.95;;
23668;SDS011;12011;47.422;15.018;2023-03-01T09:48:33;11.02;;;10.80;;
23668;SDS011;12011;47.422;15.018;2023-03-01T09:51:12;11.29;;;11.09;;
23668;SDS011;12011;47.422;15.018;2023-03-01T09:53:54;10.96;;;10.79;;
23668;SDS011;12011;47.422;15.018;2023-03-01T09:56:27;11.05;;;10.81;;
23668;SDS011;12011;47.422;15.018;2023-03-01T09:59:07;10.84;;;10.61;;
23668;SDS011;12011;47.422;15.018;2023-03-01T10:01:55;10.64;;;10.53;;
23668;SDS011;12011;47.422;15.018;2023-03-01T10:04:47;11.16;;;10.96;;
23668;SDS011;12011;47.422;15.018;2023-03-01T10:07:25;11.42;;;11.11;;
23668;SDS011;12011;47.422;15.018;2023-03-01T10:10:07;10.70;;;10.45;;
23668;SDS011;12011;47.422;15.018;2023-03-01T10:12:46;10.95;;;10.70;;
23668;SDS011;12011;47.422;15.018;2023-03-01T10:15:17;10.60;;;10.37;;
23668;SDS011;12011;47.422;15.018;2023-03-01T10:18:03;10.49;;;10.27;;
23668;SDS011;12011;47.422;15.018;2023-03-01T10:20:43;10.81;;;10.60;;
23668;SDS011;12011;47.422;15.018;2023-03-01T10:23:22;11.10;;;10.97;;
23668;SDS011;12011;47.422;15.018;2023-03-01T10:26:02;10.89;;;10.77;;
23668;SDS011;12011;47.422;15.018;2023-03-01T10:29:13;11.52;;;11.38;;
23668;SDS011;12011;47.422;15.018;2023-03-01T10:31:44;11.27;;;11.07;;
23668;SDS011;12011;47.422;15.018;2023-03-01T10:34:18;10.87;;;10.64;;
23668;SDS011;12011;47.422;15.018;2023-03-01T10:36:51;11.08;;;10.90;;
23668;SDS011;12011;47.422;15.018;2023-03-01T10:39:25;9.74;;;9.61;;
23668;SDS011;12011;47.422;15.018;2023-03-01T10:41:59;10.06;;;9.86;;
23668;SDS011;12011;47.422;15.018;2023-03-01T10:44:35;10.84;;;10.57;;
23668;SDS011;12011;47.422;15.018;2023-03-01T10:47:13;10.66;;;10.46;;
23668;SDS011;12011;47.422;15.018;2023-03-01T10:49:51;10.86;;;10.67;;
23668;SDS011;12011;47.422;15.018;2023-03-01T10:52:31;10.65;;;10.51;;
23668;SDS011;12011;47.422;15.018;2023-03-01T10:55:04;10.38;;;10.19;;
23668;SDS011;12011;47.422;15.018;2023-03-01T10:58:08;10.48;;;10.28;;
23668;SDS011;12011;47.422;15.018;2023-03-01T11:00:48;10.21;;;9.91;;
23668;SDS011;12011;47.422;15.018;2023-03-01T11:03:22;9.81;;;9.61;;
23668;SDS011;12011;47.422;15.018;2023-03-01T11:05:57;9.86;;;9.64;;
23668;SDS011;12011;47.422;15.018;2023-03-01T11:08:38;10.08;;;9.83;;
23668;SDS011;12011;47.422;15.018;2023-03-01T11:11:17;9.75;;;9.54;;
23668;SDS011;12011;47.422;15.018;2023-03-01T11:14:00;9.05;;;8.92;;
23668;SDS011;12011;47.422;15.018;2023-03-01T11:16:36;9.54;;;9.33;;
23668;SDS011;12011;47.422;15.018;2023-03-01T11:19:19;9.29;;;9.11;;
23668;SDS011;12011;47.422;15.018;2023-03-01T11:21:52;9.15;;;8.94;;
23668;SDS011;12011;47.422;15.018;2023-03-01T11:24:31;9.26;;;9.09;;
23668;SDS011;12011;47.422;15.018;2023-03-01T11:27:12;8.94;;;8.78;;
23668;SDS011;12011;47.422;15.018;2023-03-01T11:29:51;9.35;;;9.19;;
23668;SDS011;12011;47.422;15.018;2023-03-01T11:32:26;9.31;;;9.17;;
23668;SDS011;12011;47.422;15.018;2023-03-01T11:35:05;9.54;;;9.29;;
23668;SDS011;12011;47.422;15.018;2023-03-01T11:37:47;9.48;;;9.28;;
23668;SDS011;12011;47.422;15.018;2023-03-01T11:40:33;9.61;;;9.35;;
23668;SDS011;12011;47.422;15.018;2023-03-01T11:43:11;9.30;;;9.07;;
23668;SDS011;12011;47.422;15.018;2023-03-01T11:45:58;9.31;;;9.14;;
23668;SDS011;12011;47.422;15.018;2023-03-01T11:49:05;9.66;;;9.43;;
23668;SDS011;12011;47.422;15.018;2023-03-01T11:52:11;10.16;;;9.82;;
23668;SDS011;12011;47.422;15.018;2023-03-01T11:54:57;9.89;;;9.64;;
23668;SDS011;12011;47.422;15.018;2023-03-01T11:58:03;10.68;;;10.38;;
23668;SDS011;12011;47.422;15.018;2023-03-01T12:01:16;10.13;;;9.86;;
23668;SDS011;12011;47.422;15.018;2023-03-01T12:04:22;9.81;;;9.58;;
23668;SDS011;12011;47.422;15.018;2023-03-01T12:07:25;9.66;;;9.52;;
23668;SDS011;12011;47.422;15.018;2023-03-01T12:10:19;9.55;;;9.34;;
23668;SDS011;12011;47.422;15.018;2023-03-01T12:13:00;9.52;;;9.28;;
23668;SDS011;12011;47.422;15.018;2023-03-01T12:28:03;10.03;;;9.77;;
23668;SDS011;12011;47.422;15.018;2023-03-01T12:31:13;9.50;;;9.30;;
23668;SDS011;12011;47.422;15.018;2023-03-01T12:34:35;9.87;;;9.66;;
23668;SDS011;12011;47.422;15.018;2023-03-01T12:37:32;10.28;;;10.09;;
23668;SDS011;12011;47.422;15.018;2023-03-01T12:40:33;10.66;;;10.37;;
23668;SDS011;12011;47.422;15.018;2023-03-01T12:43:22;10.51;;;10.24;;
23668;SDS011;12011;47.422;15.018;2023-03-01T12:46:10;10.33;;;10.10;;
23668;SDS011;12011;47.422;15.018;2023-03-01T12:49:02;10.25;;;10.11;;
23668;SDS011;12011;47.422;15.018;2023-03-01T12:51:39;9.85;;;9.74;;
23668;SDS011;12011;47.422;15.018;2023-03-01T12:54:20;9.40;;;9.23;;
23668;SDS011;12011;47.422;15.018;2023-03-01T12:56:57;9.65;;;9.39;;
23668;SDS011;12011;47.422;15.018;2023-03-01T12:59:38;9.63;;;9.44;;
23668;SDS011;12011;47.422;15.018;2023-03-01T13:02:17;9.07;;;8.86;;
23668;SDS011;12011;47.422;15.018;2023-03-01T13:05:06;9.67;;;9.43;;
23668;SDS011;12011;47.422;15.018;2023-03-01T13:08:05;10.41;;;10.16;;
23668;SDS011;12011;47.422;15.018;2023-03-01T13:10:45;9.96;;;9.77;;
23668;SDS011;12011;47.422;15.018;2023-03-01T13:13:21;10.34;;;10.07;;
23668;SDS011;12011;47.422;15.018;2023-03-01T13:15:52;9.71;;;9.48;;
23668;SDS011;12011;47.422;15.018;2023-03-01T13:18:29;10.21;;;10.04;;
23668;SDS011;12011;47.422;15.018;2023-03-01T13:21:03;9.27;;;9.09;;
23668;SDS011;12011;47.422;15.018;2023-03-01T13:23:35;8.93;;;8.77;;
23668;SDS011;12011;47.422;15.018;2023-03-01T13:26:12;9.31;;;9.15;;
23668;SDS011;12011;47.422;15.018;2023-03-01T13:28:53;9.87;;;9.68;;
23668;SDS011;12011;47.422;15.018;2023-03-01T13:34:39;10.05;;;9.84;;
23668;SDS011;12011;47.422;15.018;2023-03-01T13:37:22;10.35;;;10.02;;
23668;SDS011;12011;47.422;15.018;2023-03-01T13:43:30;10.67;;;10.42;;
23668;SDS011;12011;47.422;15.018;2023-03-01T13:46:07;10.12;;;9.89;;
23668;SDS011;12011;47.422;15.018;2023-03-01T13:48:42;10.16;;;9.95;;
23668;SDS011;12011;47.422;15.018;2023-03-01T13:51:20;9.41;;;9.32;;
23668;SDS011;12011;47.422;15.018;2023-03-01T13:53:57;9.09;;;8.95;;
23668;SDS011;12011;47.422;15.018;2023-03-01T13:56:28;9.90;;;9.66;;
23668;SDS011;12011;47.422;15.018;2023-03-01T13:59:05;9.86;;;9.65;;
23668;SDS011;12011;47.422;15.018;2023-03-01T14:01:51;9.68;;;9.49;;
23668;SDS011;12011;47.422;15.018;2023-03-01T14:04:24;9.17;;;8.98;;
23668;SDS011;12011;47.422;15.018;2023-03-01T14:07:08;8.74;;;8.64;;
23668;SDS011;12011;47.422;15.018;2023-03-01T14:09:48;8.99;;;8.87;;
23668;SDS011;12011;47.422;15.018;2023-03-01T14:12:28;8.88;;;8.74;;
23668;SDS011;12011;47.422;15.018;2023-03-01T14:15:15;8.97;;;8.78;;
23668;SDS011;12011;47.422;15.018;2023-03-01T14:17:55;8.83;;;8.64;;
23668;SDS011;12011;47.422;15.018;2023-03-01T14:20:33;9.22;;;9.05;;
23668;SDS011;12011;47.422;15.018;2023-03-01T14:23:12;8.89;;;8.76;;
23668;SDS011;12011;47.422;15.018;2023-03-01T14:25:49;8.64;;;8.48;;
23668;SDS011;12011;47.422;15.018;2023-03-01T14:28:23;8.92;;;8.70;;
23668;SDS011;12011;47.422;15.018;2023-03-01T14:30:55;8.27;;;8.14;;
23668;SDS011;12011;47.422;15.018;2023-03-01T14:33:28;7.47;;;7.41;;
23668;SDS011;12011;47.422;15.018;2023-03-01T14:36:02;7.31;;;7.24;;
23668;SDS011;12011;47.422;15.018;2023-03-01T14:38:35;8.77;;;8.66;;
23668;SDS011;12011;47.422;15.018;2023-03-01T14:41:10;7.66;;;7.58;;
23668;SDS011;12011;47.422;15.018;2023-03-01T14:43:44;8.00;;;7.93;;
23668;SDS011;12011;47.422;15.018;2023-03-01T14:46:19;7.72;;;7.61;;
23668;SDS011;12011;47.422;15.018;2023-03-01T14:48:53;7.62;;;7.50;;
23668;SDS011;12011;47.422;15.018;2023-03-01T14:51:30;8.48;;;8.33;;
23668;SDS011;12011;47.422;15.018;2023-03-01T14:54:10;8.18;;;8.00;;
23668;SDS011;12011;47.422;15.018;2023-03-01T14:56:58;8.24;;;8.10;;
23668;SDS011;12011;47.422;15.018;2023-03-01T14:59:29;8.95;;;8.82;;
23668;SDS011;12011;47.422;15.018;2023-03-01T15:02:02;8.86;;;8.72;;
23668;SDS011;12011;47.422;15.018;2023-03-01T15:04:32;9.15;;;8.96;;
23668;SDS011;12011;47.422;15.018;2023-03-01T15:07:01;10.40;;;10.16;;
23668;SDS011;12011;47.422;15.018;2023-03-01T15:09:33;9.24;;;9.07;;
23668;SDS011;12011;47.422;15.018;2023-03-01T15:15:19;8.85;;;8.66;;
23668;SDS011;12011;47.422;15.018;2023-03-01T15:18:04;8.29;;;8.05;;
23668;SDS011;12011;47.422;15.018;2023-03-01T15:20:45;7.85;;;7.62;;
23668;SDS011;12011;47.422;15.018;2023-03-01T15:23:18;7.81;;;7.49;;
23668;SDS011;12011;47.422;15.018;2023-03-01T15:25:52;7.28;;;7.12;;
23668;SDS011;12011;47.422;15.018;2023-03-01T15:28:30;7.74;;;7.61;;